createdAt,value
2022-11-16T00:00:49.327Z,83.80
2022-11-16T00:03:22.025Z,84.30
2022-11-16T00:05:59.991Z,84.80
2022-11-16T00:08:34.271Z,87.40
2022-11-16T00:11:12.371Z,87.30
2022-11-16T00:13:45.270Z,89.00
2022-11-16T00:16:19.192Z,92.70
2022-11-16T00:18:56.658Z,93.10
2022-11-16T00:21:28.929Z,87.50
2022-11-16T00:24:00.996Z,87.10
2022-11-16T00:26:32.605Z,89.10
2022-11-16T00:29:04.305Z,90.40
2022-11-16T00:31:35.971Z,90.00
2022-11-16T00:34:07.526Z,89.40
2022-11-16T00:36:39.478Z,87.80
2022-11-16T00:39:13.836Z,88.90
2022-11-16T00:41:46.003Z,87.00
2022-11-16T00:44:18.151Z,85.60
2022-11-16T00:46:49.807Z,86.50
2022-11-16T00:49:21.461Z,85.10
2022-11-16T00:51:53.032Z,88.90
2022-11-16T00:54:24.986Z,91.30
2022-11-16T00:56:57.662Z,88.20
2022-11-16T00:59:29.280Z,91.10
2022-11-16T01:02:00.864Z,86.00
2022-11-16T01:04:32.735Z,88.10
2022-11-16T01:07:05.201Z,87.60
2022-11-16T01:09:38.591Z,87.10
2022-11-16T01:12:12.834Z,83.90
2022-11-16T01:14:46.939Z,88.00
2022-11-16T01:17:18.687Z,85.40
2022-11-16T01:19:50.551Z,87.70
2022-11-16T01:22:22.671Z,86.90
2022-11-16T01:24:54.275Z,86.30
2022-11-16T01:27:25.950Z,85.50
2022-11-16T01:29:57.522Z,87.90
2022-11-16T01:32:29.167Z,83.70
2022-11-16T01:35:00.670Z,84.30
2022-11-16T01:37:32.767Z,82.80
2022-11-16T01:40:04.842Z,84.60
2022-11-16T01:42:36.382Z,82.20
2022-11-16T01:45:17.888Z,82.80
2022-11-16T01:47:49.872Z,83.10
2022-11-16T01:50:22.263Z,79.50
2022-11-16T01:52:58.502Z,80.80
2022-11-16T01:55:33.254Z,79.90
2022-11-16T01:58:05.627Z,81.20
2022-11-16T02:00:37.218Z,77.10
2022-11-16T02:03:08.900Z,77.80
2022-11-16T02:09:20.252Z,76.10
2022-11-16T02:12:09.788Z,76.90
2022-11-16T02:14:57.526Z,78.70
2022-11-16T02:17:40.129Z,77.60
2022-11-16T02:20:41.908Z,77.20
2022-11-16T02:23:43.587Z,80.00
2022-11-16T02:26:27.802Z,78.20
2022-11-16T02:29:17.466Z,81.10
2022-11-16T02:31:54.061Z,78.90
2022-11-16T02:34:28.066Z,81.20
2022-11-16T02:37:05.165Z,83.00
2022-11-16T02:39:38.957Z,83.30
2022-11-16T02:44:48.511Z,82.10
2022-11-16T02:47:24.147Z,83.40
2022-11-16T02:50:00.558Z,82.90
2022-11-16T02:52:32.058Z,77.50
2022-11-16T02:55:03.834Z,78.60
2022-11-16T02:57:54.547Z,78.00
2022-11-16T03:00:30.700Z,77.30
2022-11-16T03:03:21.624Z,78.10
2022-11-16T03:05:57.289Z,77.80
2022-11-16T03:08:33.196Z,77.80
2022-11-16T03:11:25.073Z,75.60
2022-11-16T03:13:58.752Z,75.20
2022-11-16T03:16:36.499Z,73.30
2022-11-16T03:19:10.577Z,75.30
2022-11-16T03:21:46.551Z,74.70
2022-11-16T03:24:18.358Z,74.30
2022-11-16T03:27:01.063Z,73.40
2022-11-16T03:29:39.622Z,75.90
2022-11-16T03:32:18.277Z,72.90
2022-11-16T03:34:58.058Z,74.20
2022-11-16T03:37:31.213Z,74.20
2022-11-16T03:40:05.799Z,77.00
2022-11-16T03:42:38.363Z,73.40
2022-11-16T03:45:12.057Z,76.10
2022-11-16T03:47:44.038Z,80.50
2022-11-16T03:50:16.147Z,90.10
2022-11-16T03:52:47.821Z,92.50
2022-11-16T03:55:19.780Z,95.80
2022-11-16T03:57:51.265Z,91.10
2022-11-16T04:00:23.111Z,86.50
2022-11-16T04:02:54.633Z,82.70
2022-11-16T04:05:43.705Z,82.30
2022-11-16T04:08:36.909Z,80.60
2022-11-16T04:11:29.690Z,84.30
2022-11-16T04:14:19.431Z,79.90
2022-11-16T04:17:08.741Z,80.80
2022-11-16T04:20:06.490Z,81.40
2022-11-16T04:23:02.043Z,76.70
2022-11-16T04:25:36.778Z,77.90
2022-11-16T04:28:14.997Z,76.90
2022-11-16T04:31:07.838Z,78.70
2022-11-16T04:33:57.222Z,75.00
2022-11-16T04:36:46.741Z,76.20
2022-11-16T04:39:18.289Z,77.80
2022-11-16T04:42:07.507Z,74.80
2022-11-16T04:44:55.951Z,75.20
2022-11-16T04:47:27.502Z,74.00
2022-11-16T04:49:59.074Z,72.20
2022-11-16T04:52:30.581Z,70.90
2022-11-16T04:55:02.152Z,67.70
2022-11-16T04:57:33.707Z,66.70
2022-11-16T05:00:07.681Z,69.50
2022-11-16T05:02:39.213Z,68.70
2022-11-16T05:05:12.125Z,69.70
2022-11-16T05:07:44.329Z,72.70
2022-11-16T05:10:16.632Z,73.70
2022-11-16T05:12:48.198Z,70.60
2022-11-16T05:15:19.897Z,68.90
2022-11-16T05:17:54.907Z,68.40
2022-11-16T05:20:44.165Z,67.60
2022-11-16T05:23:29.582Z,69.30
2022-11-16T05:26:01.090Z,67.70
2022-11-16T05:28:32.967Z,69.70
2022-11-16T05:31:04.741Z,71.60
2022-11-16T05:33:36.261Z,74.70
2022-11-16T05:36:09.492Z,71.60
2022-11-16T05:38:41.003Z,74.80
2022-11-16T05:41:12.641Z,68.40
2022-11-16T05:43:44.155Z,72.20
2022-11-16T05:46:15.685Z,70.00
2022-11-16T05:48:47.353Z,69.90
2022-11-16T05:51:19.434Z,72.60
2022-11-16T05:53:51.035Z,71.10
2022-11-16T05:56:22.679Z,71.60
2022-11-16T05:58:54.597Z,72.10
2022-11-16T06:01:26.867Z,70.10
2022-11-16T06:04:00.165Z,71.60
2022-11-16T06:06:31.727Z,71.80
2022-11-16T06:09:03.335Z,72.60
2022-11-16T06:11:36.206Z,69.90
2022-11-16T06:14:08.373Z,69.80
2022-11-16T06:16:40.104Z,70.60
2022-11-16T06:19:11.622Z,72.60
2022-11-16T06:21:43.118Z,70.20
2022-11-16T06:24:14.693Z,72.20
2022-11-16T06:26:47.185Z,71.40
2022-11-16T06:29:18.752Z,75.40
2022-11-16T06:31:50.382Z,75.80
2022-11-16T06:34:21.939Z,76.20
2022-11-16T06:36:54.083Z,73.70
2022-11-16T06:39:25.595Z,75.50
2022-11-16T06:41:57.164Z,79.50
2022-11-16T06:44:28.777Z,79.20
2022-11-16T06:47:00.447Z,79.20
2022-11-16T06:49:32.056Z,79.90
2022-11-16T06:52:03.679Z,83.60
2022-11-16T06:54:35.343Z,84.30
2022-11-16T06:57:07.214Z,83.20
2022-11-16T06:59:38.968Z,86.70
2022-11-16T07:02:12.262Z,88.10
2022-11-16T07:04:44.525Z,84.20
2022-11-16T07:07:17.822Z,85.40
2022-11-16T07:09:49.380Z,87.60
2022-11-16T07:12:20.957Z,87.30
2022-11-16T07:14:52.555Z,84.60
2022-11-16T07:17:24.171Z,87.20
2022-11-16T07:19:55.837Z,85.50
2022-11-16T07:22:28.464Z,85.60
2022-11-16T07:25:00.156Z,88.20
2022-11-16T07:27:31.669Z,87.90
2022-11-16T07:30:03.525Z,86.40
2022-11-16T07:32:35.638Z,84.30
2022-11-16T07:35:09.126Z,85.20
2022-11-16T07:37:40.676Z,85.30
2022-11-16T07:40:13.383Z,83.00
2022-11-16T07:42:45.798Z,83.90
2022-11-16T07:45:17.742Z,82.30
2022-11-16T07:47:52.532Z,80.50
2022-11-16T07:50:24.089Z,80.40
2022-11-16T07:52:57.294Z,77.50
2022-11-16T07:55:32.030Z,70.80
2022-11-16T07:58:03.783Z,74.10
2022-11-16T08:00:35.452Z,74.00
2022-11-16T08:03:07.115Z,72.10
2022-11-16T08:05:38.893Z,70.40
2022-11-16T08:08:10.517Z,70.60
2022-11-16T08:10:42.070Z,71.00
2022-11-16T08:13:13.619Z,71.20
2022-11-16T08:15:45.135Z,73.10
2022-11-16T08:18:16.723Z,71.10
2022-11-16T08:20:48.667Z,67.20
2022-11-16T08:23:20.360Z,60.50
2022-11-16T08:25:52.279Z,58.70
2022-11-16T08:28:24.250Z,57.60
2022-11-16T08:30:56.618Z,57.60
2022-11-16T08:33:30.391Z,60.90
2022-11-16T08:36:12.540Z,64.10
2022-11-16T08:38:46.017Z,63.90
2022-11-16T08:41:18.194Z,62.40
2022-11-16T08:43:50.766Z,60.30
2022-11-16T08:46:23.015Z,60.50
2022-11-16T08:48:57.943Z,58.30
2022-11-16T08:51:29.543Z,59.50
2022-11-16T08:54:01.750Z,59.70
2022-11-16T08:56:33.750Z,56.70
2022-11-16T08:59:05.294Z,59.40
2022-11-16T09:01:36.895Z,57.50
2022-11-16T09:04:08.633Z,57.50
2022-11-16T09:06:40.381Z,57.10
2022-11-16T09:09:12.322Z,58.10
2022-11-16T09:11:43.836Z,59.20
2022-11-16T09:14:15.461Z,60.20
2022-11-16T09:16:46.996Z,59.30
2022-11-16T09:19:19.017Z,58.80
2022-11-16T09:21:50.778Z,58.70
2022-11-16T09:24:22.363Z,57.40
2022-11-16T09:26:56.714Z,59.10
2022-11-16T09:29:28.631Z,55.80
2022-11-16T09:32:00.555Z,51.80
2022-11-16T09:34:32.155Z,51.80
2022-11-16T09:37:04.474Z,50.60
2022-11-16T09:39:36.103Z,49.30
2022-11-16T09:42:26.677Z,50.60
2022-11-16T09:45:04.974Z,50.30
2022-11-16T09:47:48.973Z,51.60
2022-11-16T09:50:29.997Z,50.60
2022-11-16T09:53:08.606Z,50.20
2022-11-16T09:55:48.048Z,49.40
2022-11-16T09:58:25.042Z,52.30
2022-11-16T10:01:02.842Z,53.60
2022-11-16T10:03:41.386Z,51.00
2022-11-16T10:06:23.440Z,50.50
2022-11-16T10:08:57.592Z,49.20
2022-11-16T10:11:44.522Z,52.40
2022-11-16T10:14:32.380Z,51.90
2022-11-16T10:17:16.564Z,52.90
2022-11-16T10:19:54.756Z,53.40
2022-11-16T10:22:44.208Z,55.20
2022-11-16T10:25:21.906Z,56.20
2022-11-16T10:28:22.973Z,57.70
2022-11-16T10:31:04.130Z,59.60
2022-11-16T10:33:38.149Z,61.80
2022-11-16T10:36:14.743Z,62.50
2022-11-16T10:38:47.013Z,59.00
2022-11-16T10:41:21.535Z,59.60
2022-11-16T10:43:53.265Z,60.20
2022-11-16T10:46:30.066Z,60.50
2022-11-16T10:49:11.478Z,58.00
2022-11-16T10:51:43.516Z,60.70
2022-11-16T10:54:16.877Z,60.90
2022-11-16T10:56:52.798Z,61.50
2022-11-16T10:59:38.343Z,60.40
2022-11-16T11:02:31.221Z,62.30
2022-11-16T11:05:09.183Z,63.40
2022-11-16T11:07:45.084Z,67.10
2022-11-16T11:10:32.205Z,68.50
2022-11-16T11:13:26.355Z,69.10
2022-11-16T11:16:17.048Z,69.00
2022-11-16T11:18:48.690Z,70.80
2022-11-16T11:21:29.500Z,70.40
2022-11-16T11:24:37.425Z,69.80
2022-11-16T11:27:00.681Z,61.00
2022-11-16T11:29:36.030Z,39.20
2022-11-16T11:32:18.043Z,27.30
2022-11-16T11:34:55.386Z,19.80
2022-11-16T11:37:33.070Z,15.50
2022-11-16T11:40:24.708Z,18.20
2022-11-16T11:42:59.079Z,15.10
2022-11-16T11:45:45.950Z,16.00
2022-11-16T11:48:31.146Z,17.00
2022-11-16T11:51:12.172Z,19.00
2022-11-16T11:53:52.878Z,14.20
2022-11-16T11:56:25.832Z,11.60
2022-11-16T11:58:58.048Z,13.10
2022-11-16T12:02:02.332Z,9.40
2022-11-16T12:05:01.410Z,9.00
2022-11-16T12:07:47.528Z,9.20
2022-11-16T12:10:28.297Z,9.50
2022-11-16T12:13:15.345Z,9.00
2022-11-16T12:16:04.661Z,7.60
2022-11-16T12:18:52.082Z,9.50
2022-11-16T12:21:36.581Z,8.60
2022-11-16T12:24:19.220Z,6.20
2022-11-16T12:27:03.234Z,5.60
2022-11-16T12:29:45.038Z,6.40
2022-11-16T12:32:35.057Z,5.60
2022-11-16T12:35:34.565Z,5.20
2022-11-16T12:38:24.874Z,5.90
2022-11-16T12:41:18.648Z,9.20
2022-11-16T12:43:59.864Z,9.70
2022-11-16T12:46:43.032Z,8.00
2022-11-16T12:49:44.562Z,7.80
2022-11-16T12:52:30.376Z,8.20
2022-11-16T12:55:26.873Z,8.20
2022-11-16T12:58:14.526Z,6.80
2022-11-16T13:01:02.747Z,6.50
2022-11-16T13:03:42.983Z,6.70
2022-11-16T13:06:18.014Z,8.00
2022-11-16T13:09:02.849Z,7.50
2022-11-16T13:11:38.589Z,7.70
2022-11-16T13:14:17.900Z,8.30
2022-11-16T13:16:51.211Z,10.70
2022-11-16T13:19:23.433Z,15.00
2022-11-16T13:22:03.151Z,19.20
2022-11-16T13:24:47.695Z,33.30
2022-11-16T13:27:33.245Z,41.50
2022-11-16T13:30:15.941Z,115.70
2022-11-16T13:33:12.101Z,59.90
2022-11-16T13:35:43.955Z,164.90
2022-11-16T13:38:15.564Z,136.30
2022-11-16T13:40:47.162Z,113.60
2022-11-16T13:43:20.954Z,99.00
2022-11-16T13:48:34.709Z,37.60
2022-11-16T13:51:09.306Z,22.20
2022-11-16T13:56:52.623Z,7.10
2022-11-16T13:59:29.817Z,7.50
2022-11-16T14:02:04.329Z,8.60
2022-11-16T14:04:43.391Z,5.00
2022-11-16T14:07:36.893Z,5.20
2022-11-16T14:10:09.953Z,11.10
2022-11-16T14:12:58.386Z,25.30
2022-11-16T14:15:35.689Z,12.90
2022-11-16T14:18:37.356Z,7.80
2022-11-16T14:21:24.519Z,6.50
2022-11-16T14:24:08.867Z,7.40
2022-11-16T14:26:53.068Z,11.70
2022-11-16T14:29:54.283Z,11.40
2022-11-16T14:32:28.615Z,8.50
2022-11-16T14:35:02.975Z,51.10
2022-11-16T14:37:38.789Z,27.00
2022-11-16T14:40:18.623Z,9.10
2022-11-16T14:43:15.566Z,12.80
2022-11-16T14:45:53.290Z,6.30
2022-11-16T14:48:26.934Z,7.10
2022-11-16T14:51:09.457Z,7.70
2022-11-16T14:53:45.978Z,9.90
2022-11-16T14:56:19.155Z,16.20
2022-11-16T14:58:58.596Z,6.40
2022-11-16T15:01:32.795Z,7.40
2022-11-16T15:04:08.177Z,10.00
2022-11-16T15:06:44.734Z,16.50
2022-11-16T15:09:22.114Z,9.00
2022-11-16T15:12:11.613Z,17.00
2022-11-16T15:14:48.974Z,14.80
2022-11-16T15:17:25.166Z,14.80
2022-11-16T15:20:02.752Z,8.10
2022-11-16T15:22:40.860Z,8.90
2022-11-16T15:25:27.586Z,9.30
2022-11-16T15:28:01.074Z,27.30
2022-11-16T15:30:37.014Z,20.10
2022-11-16T15:33:17.803Z,8.30
2022-11-16T15:35:49.541Z,6.30
2022-11-16T15:38:24.243Z,11.10
2022-11-16T15:40:57.685Z,9.60
2022-11-16T15:43:34.651Z,9.70
2022-11-16T15:46:09.197Z,8.10
2022-11-16T15:48:42.196Z,8.10
2022-11-16T15:51:19.866Z,9.70
2022-11-16T15:53:53.145Z,9.10
2022-11-16T15:56:31.735Z,11.60
2022-11-16T15:59:12.131Z,10.60
2022-11-16T16:01:47.735Z,9.60
2022-11-16T16:04:20.508Z,12.90
2022-11-16T16:06:53.499Z,15.90
2022-11-16T16:09:28.370Z,11.80
2022-11-16T16:12:19.313Z,24.20
2022-11-16T16:14:52.681Z,13.10
2022-11-16T16:17:29.330Z,10.60
2022-11-16T16:20:03.534Z,9.90
2022-11-16T16:22:37.089Z,9.90
2022-11-16T16:25:23.146Z,10.30
2022-11-16T16:27:54.861Z,9.20
2022-11-16T16:30:29.474Z,8.50
2022-11-16T16:33:02.273Z,9.50
2022-11-16T16:35:34.013Z,12.50
2022-11-16T16:38:13.849Z,10.50
2022-11-16T16:40:45.372Z,10.40
2022-11-16T16:43:16.866Z,8.50
2022-11-16T16:45:48.918Z,9.60
2022-11-16T16:48:20.553Z,8.40
2022-11-16T16:50:52.176Z,10.00
2022-11-16T16:53:23.817Z,10.90
2022-11-16T16:55:55.655Z,12.40
2022-11-16T16:58:27.184Z,14.90
2022-11-16T17:01:01.430Z,13.20
2022-11-16T17:03:34.610Z,12.10
2022-11-16T17:06:07.146Z,11.50
2022-11-16T17:08:39.380Z,10.80
2022-11-16T17:11:12.479Z,9.60
2022-11-16T17:13:44.016Z,10.20
2022-11-16T17:16:15.602Z,9.30
2022-11-16T17:18:47.821Z,9.50
2022-11-16T17:21:19.380Z,9.80
2022-11-16T17:23:51.181Z,11.30
2022-11-16T17:26:22.889Z,15.30
2022-11-16T17:28:58.628Z,12.60
2022-11-16T17:31:30.454Z,12.10
2022-11-16T17:34:01.981Z,10.90
2022-11-16T17:36:33.508Z,11.50
2022-11-16T17:39:05.550Z,11.40
2022-11-16T17:41:37.517Z,10.60
2022-11-16T17:44:09.804Z,12.20
2022-11-16T17:46:41.483Z,12.90
2022-11-16T17:49:12.985Z,11.00
2022-11-16T17:51:44.713Z,11.20
2022-11-16T17:54:16.410Z,11.50
2022-11-16T17:56:48.527Z,8.50
2022-11-16T17:59:22.735Z,8.30
2022-11-16T18:01:58.202Z,6.90
2022-11-16T18:04:30.129Z,7.30
2022-11-16T18:07:01.724Z,6.00
2022-11-16T18:09:34.334Z,5.70
2022-11-16T18:12:06.382Z,5.80
2022-11-16T18:14:37.865Z,6.10
2022-11-16T18:17:09.480Z,5.70
2022-11-16T18:19:41.155Z,6.70
2022-11-16T18:22:12.689Z,6.60
2022-11-16T18:24:44.230Z,6.40
2022-11-16T18:27:15.725Z,6.00
2022-11-16T18:29:48.042Z,6.00
2022-11-16T18:32:19.545Z,5.40
2022-11-16T18:34:51.188Z,4.90
2022-11-16T18:37:22.806Z,5.60
2022-11-16T18:39:54.361Z,5.00
2022-11-16T18:42:25.886Z,5.10
2022-11-16T18:44:57.510Z,5.00
2022-11-16T18:47:29.025Z,6.30
2022-11-16T18:50:01.032Z,6.90
2022-11-16T18:52:32.570Z,10.60
2022-11-16T18:55:04.127Z,5.80
2022-11-16T18:57:35.640Z,4.60
2022-11-16T19:00:10.376Z,4.30
2022-11-16T19:02:41.862Z,4.10
2022-11-16T19:05:13.501Z,3.90
2022-11-16T19:07:45.028Z,3.80
2022-11-16T19:10:16.661Z,3.70
2022-11-16T19:12:48.161Z,3.60
2022-11-16T19:15:20.112Z,3.50
2022-11-16T19:18:14.708Z,3.90
2022-11-16T19:20:43.569Z,4.30
2022-11-16T19:23:15.075Z,3.90
2022-11-16T19:25:46.582Z,4.40
2022-11-16T19:28:18.178Z,7.10
2022-11-16T19:30:49.675Z,6.20
2022-11-16T19:33:21.189Z,4.10
2022-11-16T19:35:52.722Z,3.30
2022-11-16T19:38:24.325Z,3.30
2022-11-16T19:40:55.812Z,3.60
2022-11-16T19:43:27.467Z,4.50
2022-11-16T19:46:04.923Z,3.20
2022-11-16T19:48:36.870Z,3.70
2022-11-16T19:51:10.440Z,4.60
2022-11-16T19:53:42.636Z,4.60
2022-11-16T19:56:16.672Z,4.60
2022-11-16T19:58:48.552Z,4.10
2022-11-16T20:01:21.775Z,3.60
2022-11-16T20:03:53.501Z,5.00
2022-11-16T20:06:29.171Z,4.40
2022-11-16T20:09:04.033Z,5.00
2022-11-16T20:11:36.613Z,4.60
2022-11-16T20:14:13.666Z,4.90
2022-11-16T20:16:47.432Z,5.10
2022-11-16T20:21:51.326Z,5.70
2022-11-16T20:24:31.780Z,6.40
2022-11-16T20:27:10.637Z,7.50
2022-11-16T20:29:43.670Z,5.30
2022-11-16T20:32:15.359Z,5.90
2022-11-16T20:34:46.945Z,6.00
2022-11-16T20:37:18.519Z,6.40
2022-11-16T20:39:52.769Z,5.70
2022-11-16T20:42:24.577Z,5.80
2022-11-16T20:44:56.301Z,5.60
2022-11-16T20:47:27.936Z,6.00
2022-11-16T20:50:00.406Z,5.70
2022-11-16T20:52:31.973Z,4.60
2022-11-16T20:55:03.522Z,4.80
2022-11-16T20:57:35.058Z,4.90
2022-11-16T21:00:08.316Z,4.90
2022-11-16T21:02:39.874Z,4.90
2022-11-16T21:05:12.261Z,5.10
2022-11-16T21:07:44.027Z,4.90
2022-11-16T21:10:21.666Z,4.70
2022-11-16T21:13:10.926Z,5.60
2022-11-16T21:15:42.474Z,3.20
2022-11-16T21:18:14.046Z,3.40
2022-11-16T21:20:45.597Z,3.50
2022-11-16T21:23:17.123Z,3.30
2022-11-16T21:25:48.659Z,3.30
2022-11-16T21:28:25.295Z,4.20
2022-11-16T21:31:04.775Z,4.20
2022-11-16T21:33:37.257Z,4.10
2022-11-16T21:36:11.779Z,4.60
2022-11-16T21:38:43.693Z,4.90
2022-11-16T21:41:16.584Z,4.20
2022-11-16T21:43:48.314Z,4.00
2022-11-16T21:46:21.511Z,3.90
2022-11-16T21:48:54.351Z,4.00
2022-11-16T21:51:27.495Z,4.40
2022-11-16T21:53:59.005Z,4.20
2022-11-16T21:56:30.664Z,4.20
2022-11-16T21:59:02.411Z,4.10
2022-11-16T22:01:54.372Z,3.90
2022-11-16T22:04:44.034Z,3.80
2022-11-16T22:07:36.901Z,3.80
2022-11-16T22:10:11.436Z,4.00
2022-11-16T22:12:43.086Z,4.70
2022-11-16T22:15:15.141Z,4.30
2022-11-16T22:17:46.961Z,4.70
2022-11-16T22:20:19.520Z,4.30
2022-11-16T22:22:52.269Z,4.50
2022-11-16T22:25:24.025Z,4.40
2022-11-16T22:30:51.353Z,3.90
2022-11-16T22:33:23.756Z,4.20
2022-11-16T22:35:55.598Z,3.80
2022-11-16T22:38:27.777Z,5.00
2022-11-16T22:40:59.712Z,4.80
2022-11-16T22:43:32.865Z,4.50
2022-11-16T22:46:06.247Z,4.30
2022-11-16T22:48:39.820Z,4.30
2022-11-16T22:51:22.300Z,4.30
2022-11-16T22:53:57.363Z,4.30
2022-11-16T22:56:30.274Z,3.90
2022-11-16T22:59:02.604Z,4.20
2022-11-16T23:01:34.654Z,4.10
2022-11-16T23:04:06.772Z,4.40
2022-11-16T23:06:38.350Z,3.90
2022-11-16T23:09:10.049Z,4.00
2022-11-16T23:11:59.366Z,3.70
2022-11-16T23:14:48.929Z,4.60
2022-11-16T23:17:20.665Z,4.20
2022-11-16T23:20:14.761Z,4.50
2022-11-16T23:23:06.943Z,3.80
2022-11-16T23:25:56.395Z,4.70
2022-11-16T23:28:28.172Z,4.60
2022-11-16T23:30:59.818Z,4.90
2022-11-16T23:33:44.872Z,4.70
2022-11-16T23:36:16.709Z,4.70
2022-11-16T23:38:48.403Z,4.80
2022-11-16T23:41:37.717Z,4.90
2022-11-16T23:44:09.424Z,4.90
2022-11-16T23:46:41.070Z,5.10
2022-11-16T23:49:12.627Z,4.20
2022-11-16T23:51:44.587Z,3.90
2022-11-16T23:54:16.459Z,4.30
2022-11-16T23:56:48.086Z,3.50
2022-11-16T23:59:19.773Z,4.10
